الصفحة الرئيسية
METAR-TAF:

METAR-TAF

مطار :

مطار ودون ثاني

Udon Thani, تايلاند

دائرة عرض: 17-23N, خط طول: 102-48E, ارتفاع: 177 متر

مراقبة الطقس الحالي

تاريخ ووقت الإصدار 11ساعات و 21 دقيقة قبل الساعة 12:00UTC
ريح 6 عقدة من الجنوب الشرقي
درجة الحرارة 31°درجة مئوية
الرطوبة 66%
ضغط 1006 hPa
الرؤية 10 كم أو أكثر
غيوم قليلة على ارتفاع 4500 قدم

METAR: VTUD 031200Z 14006KT 9999 FEW045 31/24 Q1006 NOSIG

زمن: 06:21 (23:21 UTC)

توقعات

تاريخ ووقت الإصدار 6ساعات و 21 دقيقة قبل الساعة 17:00UTC
التوقعات صالحة من03 الساعة 18 UTC إلى 04 الساعة 18 UTC
ريح 5 عقدة من الجنوب/الجنوب الغربي
الرؤية 10 كم أو أكثر
غيوم متفرقة على ارتفاع 3000 قدم
مؤقت
من 04 الساعة 06 UTC إلى 04 الساعة 12 UTC
ريح 15 عقدةمن اتجاهات متغيرة
الرؤية: 4500 متر
غيوم قليلة على ارتفاع 1800 قدم, مزنة ركامية.
غيوم مفككة على ارتفاع 2500 قدم
عاصفة رعدية, مطر

TAF: VTUD 031700Z 0318/0418 20005KT 9999 SCT030 TEMPO 0406/0412 VRB15KT 4500 TSRA FEW018CB BKN025

أرصاد الطقس والتوقعات من أكثر من 4000 مطار (تقارير الطقس للمطار METAR والتنبؤ بالطقس بالمطارTAF).

المحطات المتاحة هي النقط الصفراء والحمراء على الخريطة.

حرك المؤشر فوق النقطة لمعرفة اسم المحطة.

ثم انقر لمعرفة أرصاد وتوقعات الطقس.

لتغيير الخارطة: اضغط على الأزرار الخضراء مع رمز الصليب الأسود للتكبير. على الزر الأخضر مع شرطة للتصغير، أو على الأسهم الخضراء للخرائط المجاورة.


METAR-TAF: